sensor_id;sensor_type;location;lat;lon;timestamp;temperature;humidity
84807;DHT22;75042;43.504;3.714;2024-01-06T00:01:21;9.70;65.00
84807;DHT22;75042;43.504;3.714;2024-01-06T00:03:47;9.70;65.40
84807;DHT22;75042;43.504;3.714;2024-01-06T00:06:13;9.70;64.80
84807;DHT22;75042;43.504;3.714;2024-01-06T00:08:38;9.70;65.30
84807;DHT22;75042;43.504;3.714;2024-01-06T00:11:04;9.80;64.70
84807;DHT22;75042;43.504;3.714;2024-01-06T00:13:29;9.70;64.80
84807;DHT22;75042;43.504;3.714;2024-01-06T00:15:55;9.70;65.20
84807;DHT22;75042;43.504;3.714;2024-01-06T00:18:20;9.80;63.80
84807;DHT22;75042;43.504;3.714;2024-01-06T00:20:46;9.80;63.80
84807;DHT22;75042;43.504;3.714;2024-01-06T00:23:11;9.80;63.90
84807;DHT22;75042;43.504;3.714;2024-01-06T00:25:37;9.80;63.50
84807;DHT22;75042;43.504;3.714;2024-01-06T00:28:02;9.80;63.50
84807;DHT22;75042;43.504;3.714;2024-01-06T00:30:28;9.90;63.50
84807;DHT22;75042;43.504;3.714;2024-01-06T00:32:53;9.80;63.80
84807;DHT22;75042;43.504;3.714;2024-01-06T00:35:19;9.80;63.70
84807;DHT22;75042;43.504;3.714;2024-01-06T00:37:45;9.80;64.00
84807;DHT22;75042;43.504;3.714;2024-01-06T00:40:10;9.80;63.50
84807;DHT22;75042;43.504;3.714;2024-01-06T00:42:36;9.80;63.90
84807;DHT22;75042;43.504;3.714;2024-01-06T00:45:02;9.80;63.30
84807;DHT22;75042;43.504;3.714;2024-01-06T00:47:28;9.80;63.00
84807;DHT22;75042;43.504;3.714;2024-01-06T00:49:53;9.80;62.80
84807;DHT22;75042;43.504;3.714;2024-01-06T00:52:19;9.80;62.30
84807;DHT22;75042;43.504;3.714;2024-01-06T00:54:44;9.80;61.90
84807;DHT22;75042;43.504;3.714;2024-01-06T00:57:10;9.80;61.30
84807;DHT22;75042;43.504;3.714;2024-01-06T00:59:36;9.80;62.30
84807;DHT22;75042;43.504;3.714;2024-01-06T01:02:01;9.80;62.20
84807;DHT22;75042;43.504;3.714;2024-01-06T01:04:27;9.70;62.20
84807;DHT22;75042;43.504;3.714;2024-01-06T01:06:52;9.70;62.70
84807;DHT22;75042;43.504;3.714;2024-01-06T01:09:18;9.70;62.60
84807;DHT22;75042;43.504;3.714;2024-01-06T01:11:43;9.70;62.80
84807;DHT22;75042;43.504;3.714;2024-01-06T01:14:09;9.60;63.20
84807;DHT22;75042;43.504;3.714;2024-01-06T01:16:34;9.60;62.80
84807;DHT22;75042;43.504;3.714;2024-01-06T01:19:00;9.50;63.20
84807;DHT22;75042;43.504;3.714;2024-01-06T01:21:27;9.50;63.60
84807;DHT22;75042;43.504;3.714;2024-01-06T01:23:53;9.50;63.30
84807;DHT22;75042;43.504;3.714;2024-01-06T01:26:18;9.50;63.50
84807;DHT22;75042;43.504;3.714;2024-01-06T01:28:44;9.50;63.40
84807;DHT22;75042;43.504;3.714;2024-01-06T01:31:09;9.50;63.40
84807;DHT22;75042;43.504;3.714;2024-01-06T01:33:35;9.50;62.90
84807;DHT22;75042;43.504;3.714;2024-01-06T01:36:00;9.50;62.70
84807;DHT22;75042;43.504;3.714;2024-01-06T01:38:26;9.60;62.60
84807;DHT22;75042;43.504;3.714;2024-01-06T01:40:51;9.60;62.50
84807;DHT22;75042;43.504;3.714;2024-01-06T01:43:19;9.60;62.10
84807;DHT22;75042;43.504;3.714;2024-01-06T01:45:48;9.60;62.30
84807;DHT22;75042;43.504;3.714;2024-01-06T01:48:15;9.50;62.00
84807;DHT22;75042;43.504;3.714;2024-01-06T01:50:40;9.50;61.80
84807;DHT22;75042;43.504;3.714;2024-01-06T01:53:06;9.50;62.10
84807;DHT22;75042;43.504;3.714;2024-01-06T01:55:32;9.40;62.00
84807;DHT22;75042;43.504;3.714;2024-01-06T01:57:57;9.40;62.30
84807;DHT22;75042;43.504;3.714;2024-01-06T02:00:23;9.40;62.00
84807;DHT22;75042;43.504;3.714;2024-01-06T02:02:48;9.30;62.10
84807;DHT22;75042;43.504;3.714;2024-01-06T02:05:14;9.30;62.30
84807;DHT22;75042;43.504;3.714;2024-01-06T02:07:39;9.30;62.10
84807;DHT22;75042;43.504;3.714;2024-01-06T02:10:05;9.30;62.60
84807;DHT22;75042;43.504;3.714;2024-01-06T02:12:31;9.20;62.80
84807;DHT22;75042;43.504;3.714;2024-01-06T02:14:57;9.10;63.20
84807;DHT22;75042;43.504;3.714;2024-01-06T02:17:22;9.10;63.40
84807;DHT22;75042;43.504;3.714;2024-01-06T02:19:48;9.10;63.90
84807;DHT22;75042;43.504;3.714;2024-01-06T02:22:13;9.00;63.80
84807;DHT22;75042;43.504;3.714;2024-01-06T02:24:39;9.00;63.90
84807;DHT22;75042;43.504;3.714;2024-01-06T02:27:04;8.90;64.20
84807;DHT22;75042;43.504;3.714;2024-01-06T02:29:30;8.80;64.10
84807;DHT22;75042;43.504;3.714;2024-01-06T02:31:55;8.80;64.90
84807;DHT22;75042;43.504;3.714;2024-01-06T02:34:21;8.70;64.50
84807;DHT22;75042;43.504;3.714;2024-01-06T02:36:46;8.70;65.10
84807;DHT22;75042;43.504;3.714;2024-01-06T02:39:12;8.60;65.00
84807;DHT22;75042;43.504;3.714;2024-01-06T02:41:37;8.60;65.30
84807;DHT22;75042;43.504;3.714;2024-01-06T02:44:03;8.50;66.00
84807;DHT22;75042;43.504;3.714;2024-01-06T02:46:29;8.50;66.60
84807;DHT22;75042;43.504;3.714;2024-01-06T02:48:55;8.40;67.20
84807;DHT22;75042;43.504;3.714;2024-01-06T02:51:20;8.30;67.90
84807;DHT22;75042;43.504;3.714;2024-01-06T02:53:46;8.20;68.10
84807;DHT22;75042;43.504;3.714;2024-01-06T02:56:11;8.10;68.40
84807;DHT22;75042;43.504;3.714;2024-01-06T02:58:37;8.00;68.40
84807;DHT22;75042;43.504;3.714;2024-01-06T03:01:04;8.00;69.20
84807;DHT22;75042;43.504;3.714;2024-01-06T03:03:30;7.90;69.10
84807;DHT22;75042;43.504;3.714;2024-01-06T03:05:55;7.80;69.00
84807;DHT22;75042;43.504;3.714;2024-01-06T03:08:21;7.70;69.70
84807;DHT22;75042;43.504;3.714;2024-01-06T03:10:48;7.70;69.10
84807;DHT22;75042;43.504;3.714;2024-01-06T03:13:14;7.70;69.00
84807;DHT22;75042;43.504;3.714;2024-01-06T03:15:39;7.60;68.50
84807;DHT22;75042;43.504;3.714;2024-01-06T03:18:05;7.60;68.10
84807;DHT22;75042;43.504;3.714;2024-01-06T03:20:30;7.60;67.60
84807;DHT22;75042;43.504;3.714;2024-01-06T03:22:56;7.60;67.50
84807;DHT22;75042;43.504;3.714;2024-01-06T03:25:21;7.70;67.00
84807;DHT22;75042;43.504;3.714;2024-01-06T03:27:47;7.60;66.20
84807;DHT22;75042;43.504;3.714;2024-01-06T03:30:12;7.60;66.30
84807;DHT22;75042;43.504;3.714;2024-01-06T03:32:38;7.60;65.80
84807;DHT22;75042;43.504;3.714;2024-01-06T03:35:05;7.60;65.70
84807;DHT22;75042;43.504;3.714;2024-01-06T03:37:32;7.60;65.40
84807;DHT22;75042;43.504;3.714;2024-01-06T03:39:57;7.50;65.70
84807;DHT22;75042;43.504;3.714;2024-01-06T03:42:23;7.50;65.40
84807;DHT22;75042;43.504;3.714;2024-01-06T03:44:48;7.50;65.30
84807;DHT22;75042;43.504;3.714;2024-01-06T03:47:14;7.50;65.10
84807;DHT22;75042;43.504;3.714;2024-01-06T03:49:39;7.50;65.10
84807;DHT22;75042;43.504;3.714;2024-01-06T03:52:05;7.40;65.30
84807;DHT22;75042;43.504;3.714;2024-01-06T03:54:30;7.40;65.70
84807;DHT22;75042;43.504;3.714;2024-01-06T03:56:56;7.30;66.10
84807;DHT22;75042;43.504;3.714;2024-01-06T03:59:21;7.40;65.70
84807;DHT22;75042;43.504;3.714;2024-01-06T04:01:47;7.40;65.60
84807;DHT22;75042;43.504;3.714;2024-01-06T04:04:13;7.30;65.90
84807;DHT22;75042;43.504;3.714;2024-01-06T04:06:38;7.30;66.00
84807;DHT22;75042;43.504;3.714;2024-01-06T04:09:04;7.30;65.90
84807;DHT22;75042;43.504;3.714;2024-01-06T04:11:30;7.30;65.60
84807;DHT22;75042;43.504;3.714;2024-01-06T04:13:56;7.30;65.80
84807;DHT22;75042;43.504;3.714;2024-01-06T04:16:21;7.20;66.20
84807;DHT22;75042;43.504;3.714;2024-01-06T04:18:47;7.20;66.30
84807;DHT22;75042;43.504;3.714;2024-01-06T04:21:12;7.10;66.50
84807;DHT22;75042;43.504;3.714;2024-01-06T04:23:38;7.10;66.50
84807;DHT22;75042;43.504;3.714;2024-01-06T04:26:04;7.00;66.60
84807;DHT22;75042;43.504;3.714;2024-01-06T04:28:30;7.00;66.20
84807;DHT22;75042;43.504;3.714;2024-01-06T04:30:55;7.00;66.70
84807;DHT22;75042;43.504;3.714;2024-01-06T04:33:21;7.00;66.00
84807;DHT22;75042;43.504;3.714;2024-01-06T04:35:46;7.00;66.10
84807;DHT22;75042;43.504;3.714;2024-01-06T04:38:12;7.00;65.80
84807;DHT22;75042;43.504;3.714;2024-01-06T04:40:38;7.10;65.00
84807;DHT22;75042;43.504;3.714;2024-01-06T04:43:03;7.10;65.00
84807;DHT22;75042;43.504;3.714;2024-01-06T04:45:29;7.00;64.60
84807;DHT22;75042;43.504;3.714;2024-01-06T04:47:54;7.10;64.10
84807;DHT22;75042;43.504;3.714;2024-01-06T04:50:20;7.00;64.20
84807;DHT22;75042;43.504;3.714;2024-01-06T04:52:45;7.10;63.30
84807;DHT22;75042;43.504;3.714;2024-01-06T04:55:11;7.10;63.00
84807;DHT22;75042;43.504;3.714;2024-01-06T04:57:37;7.10;62.60
84807;DHT22;75042;43.504;3.714;2024-01-06T05:00:03;7.20;62.20
84807;DHT22;75042;43.504;3.714;2024-01-06T05:02:29;7.10;62.40
84807;DHT22;75042;43.504;3.714;2024-01-06T05:04:55;7.10;62.30
84807;DHT22;75042;43.504;3.714;2024-01-06T05:07:20;7.00;62.90
84807;DHT22;75042;43.504;3.714;2024-01-06T05:09:46;7.00;62.30
84807;DHT22;75042;43.504;3.714;2024-01-06T05:12:12;7.00;62.40
84807;DHT22;75042;43.504;3.714;2024-01-06T05:14:37;7.00;62.80
84807;DHT22;75042;43.504;3.714;2024-01-06T05:17:03;7.00;62.70
84807;DHT22;75042;43.504;3.714;2024-01-06T05:19:29;7.00;62.50
84807;DHT22;75042;43.504;3.714;2024-01-06T05:21:54;7.00;62.20
84807;DHT22;75042;43.504;3.714;2024-01-06T05:24:20;7.00;62.40
84807;DHT22;75042;43.504;3.714;2024-01-06T05:26:45;7.00;62.60
84807;DHT22;75042;43.504;3.714;2024-01-06T05:29:11;7.10;61.90
84807;DHT22;75042;43.504;3.714;2024-01-06T05:31:37;7.20;60.90
84807;DHT22;75042;43.504;3.714;2024-01-06T05:34:02;7.20;61.20
84807;DHT22;75042;43.504;3.714;2024-01-06T05:36:28;7.10;61.20
84807;DHT22;75042;43.504;3.714;2024-01-06T05:38:53;7.10;61.50
84807;DHT22;75042;43.504;3.714;2024-01-06T05:41:19;7.10;61.20
84807;DHT22;75042;43.504;3.714;2024-01-06T05:43:44;7.00;61.50
84807;DHT22;75042;43.504;3.714;2024-01-06T05:46:10;7.00;61.70
84807;DHT22;75042;43.504;3.714;2024-01-06T05:48:36;7.00;61.40
84807;DHT22;75042;43.504;3.714;2024-01-06T05:51:01;7.00;60.70
84807;DHT22;75042;43.504;3.714;2024-01-06T05:53:29;7.10;60.10
84807;DHT22;75042;43.504;3.714;2024-01-06T05:55:54;7.10;59.80
84807;DHT22;75042;43.504;3.714;2024-01-06T05:58:20;7.00;60.20
84807;DHT22;75042;43.504;3.714;2024-01-06T06:00:45;6.90;60.30
84807;DHT22;75042;43.504;3.714;2024-01-06T06:03:12;6.90;59.30
84807;DHT22;75042;43.504;3.714;2024-01-06T06:05:37;6.90;59.80
84807;DHT22;75042;43.504;3.714;2024-01-06T06:08:03;6.90;58.90
84807;DHT22;75042;43.504;3.714;2024-01-06T06:10:28;7.00;57.80
84807;DHT22;75042;43.504;3.714;2024-01-06T06:13:06;7.00;57.60
84807;DHT22;75042;43.504;3.714;2024-01-06T06:15:31;7.10;56.80
84807;DHT22;75042;43.504;3.714;2024-01-06T06:17:58;7.10;55.90
84807;DHT22;75042;43.504;3.714;2024-01-06T06:20:25;7.10;55.80
84807;DHT22;75042;43.504;3.714;2024-01-06T06:22:51;7.10;55.40
84807;DHT22;75042;43.504;3.714;2024-01-06T06:25:16;7.10;55.40
84807;DHT22;75042;43.504;3.714;2024-01-06T06:27:42;7.10;55.20
84807;DHT22;75042;43.504;3.714;2024-01-06T06:30:08;7.10;55.40
84807;DHT22;75042;43.504;3.714;2024-01-06T06:32:33;7.00;55.40
84807;DHT22;75042;43.504;3.714;2024-01-06T06:34:59;7.10;55.20
84807;DHT22;75042;43.504;3.714;2024-01-06T06:37:24;7.00;55.40
84807;DHT22;75042;43.504;3.714;2024-01-06T06:39:50;7.00;55.30
84807;DHT22;75042;43.504;3.714;2024-01-06T06:42:15;7.00;55.20
84807;DHT22;75042;43.504;3.714;2024-01-06T06:44:41;6.90;55.40
84807;DHT22;75042;43.504;3.714;2024-01-06T06:47:06;6.90;55.40
84807;DHT22;75042;43.504;3.714;2024-01-06T06:49:32;6.90;55.50
84807;DHT22;75042;43.504;3.714;2024-01-06T06:51:58;6.90;55.20
84807;DHT22;75042;43.504;3.714;2024-01-06T06:54:23;7.00;54.30
84807;DHT22;75042;43.504;3.714;2024-01-06T06:56:49;6.90;54.40
84807;DHT22;75042;43.504;3.714;2024-01-06T06:59:14;6.90;54.50
84807;DHT22;75042;43.504;3.714;2024-01-06T07:01:40;6.90;54.60
84807;DHT22;75042;43.504;3.714;2024-01-06T07:04:05;6.90;54.90
84807;DHT22;75042;43.504;3.714;2024-01-06T07:06:31;6.90;55.10
84807;DHT22;75042;43.504;3.714;2024-01-06T07:08:56;6.90;54.80
84807;DHT22;75042;43.504;3.714;2024-01-06T07:11:22;6.90;54.80
84807;DHT22;75042;43.504;3.714;2024-01-06T07:13:48;6.90;54.80
84807;DHT22;75042;43.504;3.714;2024-01-06T07:16:13;6.90;54.90
84807;DHT22;75042;43.504;3.714;2024-01-06T07:18:39;6.90;54.60
84807;DHT22;75042;43.504;3.714;2024-01-06T07:21:05;6.90;54.60
84807;DHT22;75042;43.504;3.714;2024-01-06T07:23:31;6.90;54.60
84807;DHT22;75042;43.504;3.714;2024-01-06T07:25:57;6.90;54.80
84807;DHT22;75042;43.504;3.714;2024-01-06T07:28:23;6.90;54.40
84807;DHT22;75042;43.504;3.714;2024-01-06T07:30:48;6.90;54.40
84807;DHT22;75042;43.504;3.714;2024-01-06T07:33:14;6.90;54.20
84807;DHT22;75042;43.504;3.714;2024-01-06T07:35:39;6.90;54.00
84807;DHT22;75042;43.504;3.714;2024-01-06T07:38:09;6.90;54.30
84807;DHT22;75042;43.504;3.714;2024-01-06T07:40:35;6.90;54.20
84807;DHT22;75042;43.504;3.714;2024-01-06T07:43:01;6.90;54.20
84807;DHT22;75042;43.504;3.714;2024-01-06T07:45:27;6.90;54.20
84807;DHT22;75042;43.504;3.714;2024-01-06T07:47:52;6.90;53.80
84807;DHT22;75042;43.504;3.714;2024-01-06T07:50:18;6.90;54.30
84807;DHT22;75042;43.504;3.714;2024-01-06T07:52:43;6.90;54.20
84807;DHT22;75042;43.504;3.714;2024-01-06T07:55:09;6.90;54.10
84807;DHT22;75042;43.504;3.714;2024-01-06T07:57:34;7.10;53.50
84807;DHT22;75042;43.504;3.714;2024-01-06T08:00:00;7.00;53.90
84807;DHT22;75042;43.504;3.714;2024-01-06T08:02:26;7.00;54.20
84807;DHT22;75042;43.504;3.714;2024-01-06T08:04:51;7.00;54.30
84807;DHT22;75042;43.504;3.714;2024-01-06T08:07:17;7.00;54.50
84807;DHT22;75042;43.504;3.714;2024-01-06T08:09:43;7.00;54.70
84807;DHT22;75042;43.504;3.714;2024-01-06T08:12:08;7.00;54.90
84807;DHT22;75042;43.504;3.714;2024-01-06T08:14:34;7.00;55.40
84807;DHT22;75042;43.504;3.714;2024-01-06T08:17:00;7.00;54.90
84807;DHT22;75042;43.504;3.714;2024-01-06T08:19:25;7.00;54.90
84807;DHT22;75042;43.504;3.714;2024-01-06T08:21:51;7.10;54.80
84807;DHT22;75042;43.504;3.714;2024-01-06T08:24:17;7.10;54.50
84807;DHT22;75042;43.504;3.714;2024-01-06T08:26:42;7.30;53.50
84807;DHT22;75042;43.504;3.714;2024-01-06T08:29:08;7.40;53.10
84807;DHT22;75042;43.504;3.714;2024-01-06T08:31:33;7.40;53.10
84807;DHT22;75042;43.504;3.714;2024-01-06T08:33:59;7.50;52.80
84807;DHT22;75042;43.504;3.714;2024-01-06T08:36:24;7.60;52.70
84807;DHT22;75042;43.504;3.714;2024-01-06T08:38:50;7.60;52.10
84807;DHT22;75042;43.504;3.714;2024-01-06T08:41:16;7.70;52.00
84807;DHT22;75042;43.504;3.714;2024-01-06T08:43:43;7.80;51.80
84807;DHT22;75042;43.504;3.714;2024-01-06T08:46:09;8.00;50.80
84807;DHT22;75042;43.504;3.714;2024-01-06T08:48:35;8.10;50.50
84807;DHT22;75042;43.504;3.714;2024-01-06T08:51:00;8.20;50.20
84807;DHT22;75042;43.504;3.714;2024-01-06T08:53:26;8.30;49.80
84807;DHT22;75042;43.504;3.714;2024-01-06T08:55:51;8.50;49.50
84807;DHT22;75042;43.504;3.714;2024-01-06T08:58:17;8.70;48.80
84807;DHT22;75042;43.504;3.714;2024-01-06T09:00:43;8.80;48.50
84807;DHT22;75042;43.504;3.714;2024-01-06T09:03:08;9.00;47.90
84807;DHT22;75042;43.504;3.714;2024-01-06T09:05:35;9.20;47.00
84807;DHT22;75042;43.504;3.714;2024-01-06T09:08:00;9.40;46.80
84807;DHT22;75042;43.504;3.714;2024-01-06T09:10:26;9.60;46.20
84807;DHT22;75042;43.504;3.714;2024-01-06T09:12:51;9.70;45.70
84807;DHT22;75042;43.504;3.714;2024-01-06T09:15:17;10.00;45.10
84807;DHT22;75042;43.504;3.714;2024-01-06T09:17:42;10.30;44.10
84807;DHT22;75042;43.504;3.714;2024-01-06T09:20:08;10.80;43.30
84807;DHT22;75042;43.504;3.714;2024-01-06T09:22:34;11.00;41.60
84807;DHT22;75042;43.504;3.714;2024-01-06T09:24:59;11.50;41.00
84807;DHT22;75042;43.504;3.714;2024-01-06T09:27:25;11.70;40.40
84807;DHT22;75042;43.504;3.714;2024-01-06T09:29:50;11.80;40.20
84807;DHT22;75042;43.504;3.714;2024-01-06T09:32:16;12.20;39.80
84807;DHT22;75042;43.504;3.714;2024-01-06T09:34:41;12.10;39.40
84807;DHT22;75042;43.504;3.714;2024-01-06T09:37:07;12.20;39.30
84807;DHT22;75042;43.504;3.714;2024-01-06T09:39:32;12.80;38.60
84807;DHT22;75042;43.504;3.714;2024-01-06T09:41:58;13.00;37.30
84807;DHT22;75042;43.504;3.714;2024-01-06T09:44:24;13.00;37.50
84807;DHT22;75042;43.504;3.714;2024-01-06T09:46:49;13.20;36.90
84807;DHT22;75042;43.504;3.714;2024-01-06T09:49:17;13.90;36.80
84807;DHT22;75042;43.504;3.714;2024-01-06T09:51:43;13.80;35.80
84807;DHT22;75042;43.504;3.714;2024-01-06T09:54:15;14.20;35.40
84807;DHT22;75042;43.504;3.714;2024-01-06T09:56:42;14.40;34.50
84807;DHT22;75042;43.504;3.714;2024-01-06T09:59:10;14.30;35.00
84807;DHT22;75042;43.504;3.714;2024-01-06T10:01:36;13.90;35.30
84807;DHT22;75042;43.504;3.714;2024-01-06T10:04:01;13.80;35.50
84807;DHT22;75042;43.504;3.714;2024-01-06T10:06:27;14.40;34.70
84807;DHT22;75042;43.504;3.714;2024-01-06T10:08:53;15.00;34.10
84807;DHT22;75042;43.504;3.714;2024-01-06T10:11:19;15.50;32.40
84807;DHT22;75042;43.504;3.714;2024-01-06T10:13:48;15.30;32.20
84807;DHT22;75042;43.504;3.714;2024-01-06T10:16:13;15.20;32.80
84807;DHT22;75042;43.504;3.714;2024-01-06T10:18:39;15.40;32.90
84807;DHT22;75042;43.504;3.714;2024-01-06T10:21:04;15.50;32.40
84807;DHT22;75042;43.504;3.714;2024-01-06T10:23:33;15.10;32.10
84807;DHT22;75042;43.504;3.714;2024-01-06T10:25:59;15.10;32.10
84807;DHT22;75042;43.504;3.714;2024-01-06T10:28:24;15.40;32.10
84807;DHT22;75042;43.504;3.714;2024-01-06T10:30:53;15.20;32.70
84807;DHT22;75042;43.504;3.714;2024-01-06T10:33:19;16.30;30.80
84807;DHT22;75042;43.504;3.714;2024-01-06T10:35:46;15.60;31.10
84807;DHT22;75042;43.504;3.714;2024-01-06T10:38:11;15.70;31.00
84807;DHT22;75042;43.504;3.714;2024-01-06T10:40:37;16.70;30.40
84807;DHT22;75042;43.504;3.714;2024-01-06T10:43:03;16.30;30.70
84807;DHT22;75042;43.504;3.714;2024-01-06T10:45:29;16.00;31.20
84807;DHT22;75042;43.504;3.714;2024-01-06T10:47:55;16.00;31.20
84807;DHT22;75042;43.504;3.714;2024-01-06T10:50:20;15.60;31.90
84807;DHT22;75042;43.504;3.714;2024-01-06T10:52:47;15.90;31.90
84807;DHT22;75042;43.504;3.714;2024-01-06T10:55:13;16.70;30.70
84807;DHT22;75042;43.504;3.714;2024-01-06T10:57:41;16.20;30.80
84807;DHT22;75042;43.504;3.714;2024-01-06T11:00:08;16.00;31.20
84807;DHT22;75042;43.504;3.714;2024-01-06T11:02:35;15.80;31.30
84807;DHT22;75042;43.504;3.714;2024-01-06T11:05:00;15.40;31.40
84807;DHT22;75042;43.504;3.714;2024-01-06T11:07:26;15.40;31.40
84807;DHT22;75042;43.504;3.714;2024-01-06T11:10:06;15.40;31.40
84807;DHT22;75042;43.504;3.714;2024-01-06T11:12:33;15.40;31.20
84807;DHT22;75042;43.504;3.714;2024-01-06T11:14:58;15.40;31.70
84807;DHT22;75042;43.504;3.714;2024-01-06T11:20:08;15.30;31.30
84807;DHT22;75042;43.504;3.714;2024-01-06T11:22:34;15.00;31.50
84807;DHT22;75042;43.504;3.714;2024-01-06T11:25:08;15.20;31.40
84807;DHT22;75042;43.504;3.714;2024-01-06T11:27:34;15.00;31.20
84807;DHT22;75042;43.504;3.714;2024-01-06T11:30:01;15.20;31.10
84807;DHT22;75042;43.504;3.714;2024-01-06T11:32:31;14.90;31.90
84807;DHT22;75042;43.504;3.714;2024-01-06T11:35:20;14.60;33.00
84807;DHT22;75042;43.504;3.714;2024-01-06T11:42:47;14.10;33.50
84807;DHT22;75042;43.504;3.714;2024-01-06T11:45:13;14.10;33.50
84807;DHT22;75042;43.504;3.714;2024-01-06T11:47:39;13.60;33.30
84807;DHT22;75042;43.504;3.714;2024-01-06T11:50:05;13.70;33.80
84807;DHT22;75042;43.504;3.714;2024-01-06T11:52:31;14.00;32.70
84807;DHT22;75042;43.504;3.714;2024-01-06T11:54:56;14.30;31.90
84807;DHT22;75042;43.504;3.714;2024-01-06T11:57:22;14.50;31.70
84807;DHT22;75042;43.504;3.714;2024-01-06T11:59:48;14.50;31.80
84807;DHT22;75042;43.504;3.714;2024-01-06T12:02:17;14.40;32.30
84807;DHT22;75042;43.504;3.714;2024-01-06T12:04:42;14.20;32.60
84807;DHT22;75042;43.504;3.714;2024-01-06T12:07:08;13.80;33.00
84807;DHT22;75042;43.504;3.714;2024-01-06T12:09:34;13.70;33.50
84807;DHT22;75042;43.504;3.714;2024-01-06T12:12:03;13.50;33.80
84807;DHT22;75042;43.504;3.714;2024-01-06T12:14:30;13.30;34.30
84807;DHT22;75042;43.504;3.714;2024-01-06T12:17:00;13.20;34.70
84807;DHT22;75042;43.504;3.714;2024-01-06T12:19:31;13.20;35.30
84807;DHT22;75042;43.504;3.714;2024-01-06T12:21:57;13.20;35.00
84807;DHT22;75042;43.504;3.714;2024-01-06T12:24:23;13.20;35.00
84807;DHT22;75042;43.504;3.714;2024-01-06T12:26:49;13.20;34.50
84807;DHT22;75042;43.504;3.714;2024-01-06T12:29:14;13.30;35.30
84807;DHT22;75042;43.504;3.714;2024-01-06T12:31:40;13.30;34.60
84807;DHT22;75042;43.504;3.714;2024-01-06T12:34:06;13.10;35.20
84807;DHT22;75042;43.504;3.714;2024-01-06T12:36:39;13.20;35.50
84807;DHT22;75042;43.504;3.714;2024-01-06T12:39:05;13.20;35.60
84807;DHT22;75042;43.504;3.714;2024-01-06T12:41:31;13.30;35.30
84807;DHT22;75042;43.504;3.714;2024-01-06T12:44:00;13.00;35.60
84807;DHT22;75042;43.504;3.714;2024-01-06T12:46:26;12.90;35.50
84807;DHT22;75042;43.504;3.714;2024-01-06T12:48:52;12.90;35.50
84807;DHT22;75042;43.504;3.714;2024-01-06T12:51:17;12.70;36.00
84807;DHT22;75042;43.504;3.714;2024-01-06T12:53:43;12.80;36.10
84807;DHT22;75042;43.504;3.714;2024-01-06T12:56:08;12.90;36.60
84807;DHT22;75042;43.504;3.714;2024-01-06T12:58:34;13.00;36.60
84807;DHT22;75042;43.504;3.714;2024-01-06T13:00:59;12.80;36.90
84807;DHT22;75042;43.504;3.714;2024-01-06T13:03:25;12.70;37.30
84807;DHT22;75042;43.504;3.714;2024-01-06T13:05:50;12.60;37.40
84807;DHT22;75042;43.504;3.714;2024-01-06T13:08:16;12.50;36.50
84807;DHT22;75042;43.504;3.714;2024-01-06T13:10:42;12.50;36.30
84807;DHT22;75042;43.504;3.714;2024-01-06T13:13:08;12.40;36.90
84807;DHT22;75042;43.504;3.714;2024-01-06T13:15:33;12.40;36.60
84807;DHT22;75042;43.504;3.714;2024-01-06T13:17:59;12.50;36.90
84807;DHT22;75042;43.504;3.714;2024-01-06T13:20:25;12.40;36.60
84807;DHT22;75042;43.504;3.714;2024-01-06T13:22:51;12.40;35.20
84807;DHT22;75042;43.504;3.714;2024-01-06T13:25:17;12.40;35.60
84807;DHT22;75042;43.504;3.714;2024-01-06T13:27:43;12.30;35.30
84807;DHT22;75042;43.504;3.714;2024-01-06T13:30:08;12.10;36.20
84807;DHT22;75042;43.504;3.714;2024-01-06T13:32:34;12.00;36.90
84807;DHT22;75042;43.504;3.714;2024-01-06T13:34:59;12.00;36.70
84807;DHT22;75042;43.504;3.714;2024-01-06T13:37:31;12.10;37.80
84807;DHT22;75042;43.504;3.714;2024-01-06T13:39:56;12.20;38.00
84807;DHT22;75042;43.504;3.714;2024-01-06T13:42:22;12.10;37.80
84807;DHT22;75042;43.504;3.714;2024-01-06T13:44:47;12.00;38.30
84807;DHT22;75042;43.504;3.714;2024-01-06T13:47:16;12.00;37.50
84807;DHT22;75042;43.504;3.714;2024-01-06T13:49:41;12.00;37.30
84807;DHT22;75042;43.504;3.714;2024-01-06T13:52:07;11.90;37.80
84807;DHT22;75042;43.504;3.714;2024-01-06T13:54:35;11.80;38.70
84807;DHT22;75042;43.504;3.714;2024-01-06T13:57:01;11.80;38.40
84807;DHT22;75042;43.504;3.714;2024-01-06T13:59:27;11.80;37.60
84807;DHT22;75042;43.504;3.714;2024-01-06T14:01:53;11.80;37.00
84807;DHT22;75042;43.504;3.714;2024-01-06T14:04:18;11.80;36.80
84807;DHT22;75042;43.504;3.714;2024-01-06T14:06:44;11.70;37.80
84807;DHT22;75042;43.504;3.714;2024-01-06T14:09:13;11.70;38.10
84807;DHT22;75042;43.504;3.714;2024-01-06T14:11:38;11.60;38.10
84807;DHT22;75042;43.504;3.714;2024-01-06T14:14:04;11.60;38.60
84807;DHT22;75042;43.504;3.714;2024-01-06T14:16:30;11.70;39.30
84807;DHT22;75042;43.504;3.714;2024-01-06T14:18:56;11.60;38.90
84807;DHT22;75042;43.504;3.714;2024-01-06T14:21:21;11.60;39.30
84807;DHT22;75042;43.504;3.714;2024-01-06T14:23:47;11.50;39.30
84807;DHT22;75042;43.504;3.714;2024-01-06T14:26:17;11.60;39.50
84807;DHT22;75042;43.504;3.714;2024-01-06T14:28:45;11.50;41.10
84807;DHT22;75042;43.504;3.714;2024-01-06T14:31:11;11.50;41.60
84807;DHT22;75042;43.504;3.714;2024-01-06T14:33:36;11.50;42.00
84807;DHT22;75042;43.504;3.714;2024-01-06T14:36:02;11.40;42.30
84807;DHT22;75042;43.504;3.714;2024-01-06T14:38:28;11.30;42.50
84807;DHT22;75042;43.504;3.714;2024-01-06T14:40:54;11.30;42.70
84807;DHT22;75042;43.504;3.714;2024-01-06T14:43:19;11.30;43.10
84807;DHT22;75042;43.504;3.714;2024-01-06T14:45:46;11.20;43.40
84807;DHT22;75042;43.504;3.714;2024-01-06T14:48:12;11.20;43.50
84807;DHT22;75042;43.504;3.714;2024-01-06T14:50:37;11.10;43.80
84807;DHT22;75042;43.504;3.714;2024-01-06T14:53:03;11.10;43.70
84807;DHT22;75042;43.504;3.714;2024-01-06T14:55:28;11.00;44.20
84807;DHT22;75042;43.504;3.714;2024-01-06T14:57:54;11.00;44.50
84807;DHT22;75042;43.504;3.714;2024-01-06T15:00:19;11.00;44.40
84807;DHT22;75042;43.504;3.714;2024-01-06T15:02:45;10.90;44.60
84807;DHT22;75042;43.504;3.714;2024-01-06T15:05:14;10.90;44.60
84807;DHT22;75042;43.504;3.714;2024-01-06T15:07:39;10.80;44.70
84807;DHT22;75042;43.504;3.714;2024-01-06T15:10:05;10.80;44.90
84807;DHT22;75042;43.504;3.714;2024-01-06T15:12:30;10.70;45.40
84807;DHT22;75042;43.504;3.714;2024-01-06T15:14:56;10.70;45.10
84807;DHT22;75042;43.504;3.714;2024-01-06T15:17:23;10.70;45.30
84807;DHT22;75042;43.504;3.714;2024-01-06T15:19:49;10.60;45.70
84807;DHT22;75042;43.504;3.714;2024-01-06T15:22:14;10.60;45.80
84807;DHT22;75042;43.504;3.714;2024-01-06T15:24:41;10.50;46.40
84807;DHT22;75042;43.504;3.714;2024-01-06T15:27:09;10.40;46.70
84807;DHT22;75042;43.504;3.714;2024-01-06T15:29:35;10.50;46.80
84807;DHT22;75042;43.504;3.714;2024-01-06T15:32:01;10.40;46.70
84807;DHT22;75042;43.504;3.714;2024-01-06T15:34:26;10.40;46.80
84807;DHT22;75042;43.504;3.714;2024-01-06T15:36:52;10.40;46.90
84807;DHT22;75042;43.504;3.714;2024-01-06T15:39:17;10.30;47.40